sensor_id;sensor_type;location;lat;lon;timestamp;temperature;humidity
45765;DHT22;31474;45.332;10.230;2023-04-15T00:00:42;11.50;99.90
45765;DHT22;31474;45.332;10.230;2023-04-15T00:03:07;11.50;99.90
45765;DHT22;31474;45.332;10.230;2023-04-15T00:05:33;11.50;99.90
45765;DHT22;31474;45.332;10.230;2023-04-15T00:07:59;11.50;99.90
45765;DHT22;31474;45.332;10.230;2023-04-15T00:10:26;11.60;99.90
45765;DHT22;31474;45.332;10.230;2023-04-15T00:12:52;11.60;99.90
45765;DHT22;31474;45.332;10.230;2023-04-15T00:15:18;11.70;99.90
45765;DHT22;31474;45.332;10.230;2023-04-15T00:17:43;11.70;99.90
45765;DHT22;31474;45.332;10.230;2023-04-15T00:20:09;11.60;99.90
45765;DHT22;31474;45.332;10.230;2023-04-15T00:22:35;11.60;99.90
45765;DHT22;31474;45.332;10.230;2023-04-15T00:25:01;11.40;99.90
45765;DHT22;31474;45.332;10.230;2023-04-15T00:27:27;11.30;99.90
45765;DHT22;31474;45.332;10.230;2023-04-15T00:29:53;11.20;99.90
45765;DHT22;31474;45.332;10.230;2023-04-15T00:32:18;11.20;99.90
45765;DHT22;31474;45.332;10.230;2023-04-15T00:34:44;11.20;99.90
45765;DHT22;31474;45.332;10.230;2023-04-15T00:37:10;11.20;99.90
45765;DHT22;31474;45.332;10.230;2023-04-15T00:39:37;11.30;99.90
45765;DHT22;31474;45.332;10.230;2023-04-15T00:42:04;11.30;99.90
45765;DHT22;31474;45.332;10.230;2023-04-15T00:44:30;11.30;99.90
45765;DHT22;31474;45.332;10.230;2023-04-15T00:46:56;11.30;99.90
45765;DHT22;31474;45.332;10.230;2023-04-15T00:49:22;11.30;99.90
45765;DHT22;31474;45.332;10.230;2023-04-15T00:51:48;11.40;99.90
45765;DHT22;31474;45.332;10.230;2023-04-15T00:54:14;11.30;99.90
45765;DHT22;31474;45.332;10.230;2023-04-15T00:56:41;11.30;99.90
45765;DHT22;31474;45.332;10.230;2023-04-15T00:59:07;11.30;99.90
45765;DHT22;31474;45.332;10.230;2023-04-15T01:01:35;11.20;99.90
45765;DHT22;31474;45.332;10.230;2023-04-15T01:04:01;11.30;99.90
45765;DHT22;31474;45.332;10.230;2023-04-15T01:06:27;11.30;99.90
45765;DHT22;31474;45.332;10.230;2023-04-15T01:08:54;11.30;99.90
45765;DHT22;31474;45.332;10.230;2023-04-15T01:11:20;11.30;99.90
45765;DHT22;31474;45.332;10.230;2023-04-15T01:13:47;11.30;99.90
45765;DHT22;31474;45.332;10.230;2023-04-15T01:16:13;11.30;99.90
45765;DHT22;31474;45.332;10.230;2023-04-15T01:18:39;11.20;99.90
45765;DHT22;31474;45.332;10.230;2023-04-15T01:21:06;11.20;99.90
45765;DHT22;31474;45.332;10.230;2023-04-15T01:23:34;11.10;99.90
45765;DHT22;31474;45.332;10.230;2023-04-15T01:26:01;11.10;99.90
45765;DHT22;31474;45.332;10.230;2023-04-15T01:28:28;11.00;99.90
45765;DHT22;31474;45.332;10.230;2023-04-15T01:33:32;11.00;99.90
45765;DHT22;31474;45.332;10.230;2023-04-15T01:35:58;10.90;99.90
45765;DHT22;31474;45.332;10.230;2023-04-15T01:38:26;10.90;99.90
45765;DHT22;31474;45.332;10.230;2023-04-15T01:40:52;11.00;99.90
45765;DHT22;31474;45.332;10.230;2023-04-15T01:43:18;11.00;99.90
45765;DHT22;31474;45.332;10.230;2023-04-15T01:45:44;10.90;99.90
45765;DHT22;31474;45.332;10.230;2023-04-15T01:48:10;10.90;99.90
45765;DHT22;31474;45.332;10.230;2023-04-15T01:50:36;10.90;99.90
45765;DHT22;31474;45.332;10.230;2023-04-15T01:53:02;10.80;99.90
45765;DHT22;31474;45.332;10.230;2023-04-15T01:55:28;10.80;99.90
45765;DHT22;31474;45.332;10.230;2023-04-15T01:57:54;10.70;99.90
45765;DHT22;31474;45.332;10.230;2023-04-15T02:00:20;10.70;99.90
45765;DHT22;31474;45.332;10.230;2023-04-15T02:02:47;10.70;99.90
45765;DHT22;31474;45.332;10.230;2023-04-15T02:05:13;10.80;99.90
45765;DHT22;31474;45.332;10.230;2023-04-15T02:07:39;10.90;99.90
45765;DHT22;31474;45.332;10.230;2023-04-15T02:10:05;10.90;99.90
45765;DHT22;31474;45.332;10.230;2023-04-15T02:12:30;10.90;99.90
45765;DHT22;31474;45.332;10.230;2023-04-15T02:14:56;11.00;99.90
45765;DHT22;31474;45.332;10.230;2023-04-15T02:17:22;11.00;99.90
45765;DHT22;31474;45.332;10.230;2023-04-15T02:19:47;11.10;99.90
45765;DHT22;31474;45.332;10.230;2023-04-15T02:22:13;11.10;99.90
45765;DHT22;31474;45.332;10.230;2023-04-15T02:24:43;11.10;99.90
45765;DHT22;31474;45.332;10.230;2023-04-15T02:27:09;11.10;99.90
45765;DHT22;31474;45.332;10.230;2023-04-15T02:29:34;11.10;99.90
45765;DHT22;31474;45.332;10.230;2023-04-15T02:32:00;10.90;99.90
45765;DHT22;31474;45.332;10.230;2023-04-15T02:34:26;10.90;99.90
45765;DHT22;31474;45.332;10.230;2023-04-15T02:36:51;10.90;99.90
45765;DHT22;31474;45.332;10.230;2023-04-15T02:39:21;10.90;99.90
45765;DHT22;31474;45.332;10.230;2023-04-15T02:41:48;10.80;99.90
45765;DHT22;31474;45.332;10.230;2023-04-15T02:44:16;10.90;99.90
45765;DHT22;31474;45.332;10.230;2023-04-15T02:46:45;10.90;99.90
45765;DHT22;31474;45.332;10.230;2023-04-15T02:49:17;11.00;99.90
45765;DHT22;31474;45.332;10.230;2023-04-15T02:51:43;11.00;99.90
45765;DHT22;31474;45.332;10.230;2023-04-15T02:54:12;11.10;99.90
45765;DHT22;31474;45.332;10.230;2023-04-15T02:56:37;11.10;99.90
45765;DHT22;31474;45.332;10.230;2023-04-15T02:59:03;11.00;99.90
45765;DHT22;31474;45.332;10.230;2023-04-15T03:01:29;10.90;99.90
45765;DHT22;31474;45.332;10.230;2023-04-15T03:03:54;10.90;99.90
45765;DHT22;31474;45.332;10.230;2023-04-15T03:06:20;10.90;99.90
45765;DHT22;31474;45.332;10.230;2023-04-15T03:08:46;10.90;99.90
45765;DHT22;31474;45.332;10.230;2023-04-15T03:11:13;10.90;99.90
45765;DHT22;31474;45.332;10.230;2023-04-15T03:13:39;10.90;99.90
45765;DHT22;31474;45.332;10.230;2023-04-15T03:16:06;10.80;99.90
45765;DHT22;31474;45.332;10.230;2023-04-15T03:18:32;10.80;99.90
45765;DHT22;31474;45.332;10.230;2023-04-15T03:20:57;10.80;99.90
45765;DHT22;31474;45.332;10.230;2023-04-15T03:23:24;10.70;99.90
45765;DHT22;31474;45.332;10.230;2023-04-15T03:25:50;10.70;99.90
45765;DHT22;31474;45.332;10.230;2023-04-15T03:28:15;10.70;99.90
45765;DHT22;31474;45.332;10.230;2023-04-15T03:30:41;10.70;99.90
45765;DHT22;31474;45.332;10.230;2023-04-15T03:33:07;10.70;99.90
45765;DHT22;31474;45.332;10.230;2023-04-15T03:35:33;10.70;99.90
45765;DHT22;31474;45.332;10.230;2023-04-15T03:37:59;10.80;99.90
45765;DHT22;31474;45.332;10.230;2023-04-15T03:40:25;10.80;99.90
45765;DHT22;31474;45.332;10.230;2023-04-15T03:42:51;10.70;99.90
45765;DHT22;31474;45.332;10.230;2023-04-15T03:45:17;10.60;99.90
45765;DHT22;31474;45.332;10.230;2023-04-15T03:47:42;10.60;99.90
45765;DHT22;31474;45.332;10.230;2023-04-15T03:50:08;10.60;99.90
45765;DHT22;31474;45.332;10.230;2023-04-15T03:52:34;10.60;99.90
45765;DHT22;31474;45.332;10.230;2023-04-15T03:55:00;10.60;99.90
45765;DHT22;31474;45.332;10.230;2023-04-15T03:57:26;10.60;99.90
45765;DHT22;31474;45.332;10.230;2023-04-15T03:59:51;10.60;99.90
45765;DHT22;31474;45.332;10.230;2023-04-15T04:02:17;10.70;99.90
45765;DHT22;31474;45.332;10.230;2023-04-15T04:04:43;10.70;99.90
45765;DHT22;31474;45.332;10.230;2023-04-15T04:07:17;10.70;99.90
45765;DHT22;31474;45.332;10.230;2023-04-15T04:09:42;10.60;99.90
45765;DHT22;31474;45.332;10.230;2023-04-15T04:12:08;10.60;99.90
45765;DHT22;31474;45.332;10.230;2023-04-15T04:14:34;10.50;99.90
45765;DHT22;31474;45.332;10.230;2023-04-15T04:17:00;10.50;99.90
45765;DHT22;31474;45.332;10.230;2023-04-15T04:19:25;10.40;99.90
45765;DHT22;31474;45.332;10.230;2023-04-15T04:21:51;10.30;99.90
45765;DHT22;31474;45.332;10.230;2023-04-15T04:24:17;10.30;99.90
45765;DHT22;31474;45.332;10.230;2023-04-15T04:26:43;10.20;99.90
45765;DHT22;31474;45.332;10.230;2023-04-15T04:29:08;10.20;99.90
45765;DHT22;31474;45.332;10.230;2023-04-15T04:31:34;10.20;99.90
45765;DHT22;31474;45.332;10.230;2023-04-15T04:34:00;10.20;99.90
45765;DHT22;31474;45.332;10.230;2023-04-15T04:36:25;10.30;99.90
45765;DHT22;31474;45.332;10.230;2023-04-15T04:38:51;10.30;99.90
45765;DHT22;31474;45.332;10.230;2023-04-15T04:41:17;10.30;99.90
45765;DHT22;31474;45.332;10.230;2023-04-15T04:43:42;10.40;99.90
45765;DHT22;31474;45.332;10.230;2023-04-15T04:46:08;10.40;99.90
45765;DHT22;31474;45.332;10.230;2023-04-15T04:48:34;10.50;99.90
45765;DHT22;31474;45.332;10.230;2023-04-15T04:51:00;10.50;99.90
45765;DHT22;31474;45.332;10.230;2023-04-15T04:53:26;10.50;99.90
45765;DHT22;31474;45.332;10.230;2023-04-15T04:55:52;10.50;99.90
45765;DHT22;31474;45.332;10.230;2023-04-15T04:58:18;10.50;99.90
45765;DHT22;31474;45.332;10.230;2023-04-15T05:00:43;10.60;99.90
45765;DHT22;31474;45.332;10.230;2023-04-15T05:03:09;10.50;99.90
45765;DHT22;31474;45.332;10.230;2023-04-15T05:05:35;10.50;99.90
45765;DHT22;31474;45.332;10.230;2023-04-15T05:08:04;10.50;99.90
45765;DHT22;31474;45.332;10.230;2023-04-15T05:10:30;10.50;99.90
45765;DHT22;31474;45.332;10.230;2023-04-15T05:12:56;10.30;99.90
45765;DHT22;31474;45.332;10.230;2023-04-15T05:15:21;10.30;99.90
45765;DHT22;31474;45.332;10.230;2023-04-15T05:17:47;10.30;99.90
45765;DHT22;31474;45.332;10.230;2023-04-15T05:20:13;10.40;99.90
45765;DHT22;31474;45.332;10.230;2023-04-15T05:22:38;10.40;99.90
45765;DHT22;31474;45.332;10.230;2023-04-15T05:25:04;10.50;99.90
45765;DHT22;31474;45.332;10.230;2023-04-15T05:27:30;10.50;99.90
45765;DHT22;31474;45.332;10.230;2023-04-15T05:29:56;10.60;99.90
45765;DHT22;31474;45.332;10.230;2023-04-15T05:32:21;10.70;99.90
45765;DHT22;31474;45.332;10.230;2023-04-15T05:34:47;10.90;99.90
45765;DHT22;31474;45.332;10.230;2023-04-15T05:37:13;11.00;99.90
45765;DHT22;31474;45.332;10.230;2023-04-15T05:39:38;11.10;99.90
45765;DHT22;31474;45.332;10.230;2023-04-15T05:42:04;11.20;99.90
45765;DHT22;31474;45.332;10.230;2023-04-15T05:44:30;11.40;99.90
45765;DHT22;31474;45.332;10.230;2023-04-15T05:46:56;11.60;99.90
45765;DHT22;31474;45.332;10.230;2023-04-15T05:49:22;11.70;99.90
45765;DHT22;31474;45.332;10.230;2023-04-15T05:51:48;11.80;99.90
45765;DHT22;31474;45.332;10.230;2023-04-15T05:54:14;11.90;99.90
45765;DHT22;31474;45.332;10.230;2023-04-15T05:56:40;12.00;99.90
45765;DHT22;31474;45.332;10.230;2023-04-15T05:59:05;12.10;99.90
45765;DHT22;31474;45.332;10.230;2023-04-15T06:01:32;12.20;99.90
45765;DHT22;31474;45.332;10.230;2023-04-15T06:03:58;12.20;99.90
45765;DHT22;31474;45.332;10.230;2023-04-15T06:06:24;12.40;99.90
45765;DHT22;31474;45.332;10.230;2023-04-15T06:08:51;12.50;99.90
45765;DHT22;31474;45.332;10.230;2023-04-15T06:11:19;12.70;99.90
45765;DHT22;31474;45.332;10.230;2023-04-15T06:13:45;12.80;99.90
45765;DHT22;31474;45.332;10.230;2023-04-15T06:16:11;13.00;99.90
45765;DHT22;31474;45.332;10.230;2023-04-15T06:18:37;13.10;99.90
45765;DHT22;31474;45.332;10.230;2023-04-15T06:21:03;13.20;99.90
45765;DHT22;31474;45.332;10.230;2023-04-15T06:23:28;13.30;99.90
45765;DHT22;31474;45.332;10.230;2023-04-15T06:25:54;13.40;99.90
45765;DHT22;31474;45.332;10.230;2023-04-15T06:28:20;13.40;99.90
45765;DHT22;31474;45.332;10.230;2023-04-15T06:30:46;13.50;99.90
45765;DHT22;31474;45.332;10.230;2023-04-15T06:33:11;13.60;99.90
45765;DHT22;31474;45.332;10.230;2023-04-15T06:35:37;13.70;99.90
45765;DHT22;31474;45.332;10.230;2023-04-15T06:38:04;13.90;99.90
45765;DHT22;31474;45.332;10.230;2023-04-15T06:40:29;13.80;99.70
45765;DHT22;31474;45.332;10.230;2023-04-15T06:42:55;13.90;99.90
45765;DHT22;31474;45.332;10.230;2023-04-15T06:45:21;14.10;99.90
45765;DHT22;31474;45.332;10.230;2023-04-15T06:47:47;14.20;99.60
45765;DHT22;31474;45.332;10.230;2023-04-15T06:50:12;14.20;99.50
45765;DHT22;31474;45.332;10.230;2023-04-15T06:52:39;14.10;99.10
45765;DHT22;31474;45.332;10.230;2023-04-15T06:55:05;14.30;99.70
45765;DHT22;31474;45.332;10.230;2023-04-15T06:57:31;14.40;99.60
45765;DHT22;31474;45.332;10.230;2023-04-15T06:59:57;14.60;99.50
45765;DHT22;31474;45.332;10.230;2023-04-15T07:02:22;14.60;99.10
45765;DHT22;31474;45.332;10.230;2023-04-15T07:04:48;14.70;98.90
45765;DHT22;31474;45.332;10.230;2023-04-15T07:07:14;14.80;99.10
45765;DHT22;31474;45.332;10.230;2023-04-15T07:09:41;14.90;99.00
45765;DHT22;31474;45.332;10.230;2023-04-15T07:12:07;15.00;98.80
45765;DHT22;31474;45.332;10.230;2023-04-15T07:14:32;15.20;98.90
45765;DHT22;31474;45.332;10.230;2023-04-15T07:16:58;15.30;98.50
45765;DHT22;31474;45.332;10.230;2023-04-15T07:19:23;15.40;98.10
45765;DHT22;31474;45.332;10.230;2023-04-15T07:21:49;15.50;98.20
45765;DHT22;31474;45.332;10.230;2023-04-15T07:24:15;15.60;98.80
45765;DHT22;31474;45.332;10.230;2023-04-15T07:26:43;15.80;98.60
45765;DHT22;31474;45.332;10.230;2023-04-15T07:29:09;15.90;98.00
45765;DHT22;31474;45.332;10.230;2023-04-15T07:31:35;15.90;98.20
45765;DHT22;31474;45.332;10.230;2023-04-15T07:34:02;15.80;98.10
45765;DHT22;31474;45.332;10.230;2023-04-15T07:36:28;15.80;98.10
45765;DHT22;31474;45.332;10.230;2023-04-15T07:38:54;15.80;97.70
45765;DHT22;31474;45.332;10.230;2023-04-15T07:41:20;15.70;97.80
45765;DHT22;31474;45.332;10.230;2023-04-15T07:43:46;15.80;98.40
45765;DHT22;31474;45.332;10.230;2023-04-15T07:46:13;15.80;97.20
45765;DHT22;31474;45.332;10.230;2023-04-15T07:48:39;15.80;97.40
45765;DHT22;31474;45.332;10.230;2023-04-15T07:51:05;15.80;97.70
45765;DHT22;31474;45.332;10.230;2023-04-15T07:53:30;15.70;97.60
45765;DHT22;31474;45.332;10.230;2023-04-15T07:55:57;15.70;97.30
45765;DHT22;31474;45.332;10.230;2023-04-15T07:58:23;15.80;98.10
45765;DHT22;31474;45.332;10.230;2023-04-15T08:00:49;15.80;97.20
45765;DHT22;31474;45.332;10.230;2023-04-15T08:03:14;15.60;97.20
45765;DHT22;31474;45.332;10.230;2023-04-15T08:05:40;15.90;97.90
45765;DHT22;31474;45.332;10.230;2023-04-15T08:08:06;16.10;97.50
45765;DHT22;31474;45.332;10.230;2023-04-15T08:10:32;16.10;97.40
45765;DHT22;31474;45.332;10.230;2023-04-15T08:12:58;16.30;97.40
45765;DHT22;31474;45.332;10.230;2023-04-15T08:15:24;16.30;96.80
45765;DHT22;31474;45.332;10.230;2023-04-15T08:17:50;16.10;96.40
45765;DHT22;31474;45.332;10.230;2023-04-15T08:20:15;16.30;97.30
45765;DHT22;31474;45.332;10.230;2023-04-15T08:22:41;16.50;97.10
45765;DHT22;31474;45.332;10.230;2023-04-15T08:25:07;16.50;96.30
45765;DHT22;31474;45.332;10.230;2023-04-15T08:27:33;16.50;95.30
45765;DHT22;31474;45.332;10.230;2023-04-15T08:29:59;16.50;95.00
45765;DHT22;31474;45.332;10.230;2023-04-15T08:32:25;16.60;96.20
45765;DHT22;31474;45.332;10.230;2023-04-15T08:34:51;16.70;96.10
45765;DHT22;31474;45.332;10.230;2023-04-15T08:37:17;16.60;94.60
45765;DHT22;31474;45.332;10.230;2023-04-15T08:39:43;16.50;94.70
45765;DHT22;31474;45.332;10.230;2023-04-15T08:42:16;16.70;95.20
45765;DHT22;31474;45.332;10.230;2023-04-15T08:44:42;17.00;94.80
45765;DHT22;31474;45.332;10.230;2023-04-15T08:47:12;16.80;94.10
45765;DHT22;31474;45.332;10.230;2023-04-15T08:49:39;16.80;94.70
45765;DHT22;31474;45.332;10.230;2023-04-15T08:52:06;16.90;95.00
45765;DHT22;31474;45.332;10.230;2023-04-15T08:54:33;16.90;94.40
45765;DHT22;31474;45.332;10.230;2023-04-15T08:56:59;16.90;94.00
45765;DHT22;31474;45.332;10.230;2023-04-15T08:59:25;17.00;94.70
45765;DHT22;31474;45.332;10.230;2023-04-15T09:01:51;17.10;94.70
45765;DHT22;31474;45.332;10.230;2023-04-15T09:04:18;17.20;94.80
45765;DHT22;31474;45.332;10.230;2023-04-15T09:06:44;17.30;93.80
45765;DHT22;31474;45.332;10.230;2023-04-15T09:09:10;17.40;93.60
45765;DHT22;31474;45.332;10.230;2023-04-15T09:11:37;17.50;93.90
45765;DHT22;31474;45.332;10.230;2023-04-15T09:14:03;17.50;93.60
45765;DHT22;31474;45.332;10.230;2023-04-15T09:16:28;17.50;94.00
45765;DHT22;31474;45.332;10.230;2023-04-15T09:18:55;17.60;93.90
45765;DHT22;31474;45.332;10.230;2023-04-15T09:21:20;17.80;94.50
45765;DHT22;31474;45.332;10.230;2023-04-15T09:23:56;17.80;93.10
45765;DHT22;31474;45.332;10.230;2023-04-15T09:26:35;17.70;92.40
45765;DHT22;31474;45.332;10.230;2023-04-15T09:29:06;17.70;92.30
45765;DHT22;31474;45.332;10.230;2023-04-15T09:31:32;17.80;92.30
45765;DHT22;31474;45.332;10.230;2023-04-15T09:33:58;17.50;92.40
45765;DHT22;31474;45.332;10.230;2023-04-15T09:36:24;17.50;93.00
45765;DHT22;31474;45.332;10.230;2023-04-15T09:38:58;17.50;92.60
45765;DHT22;31474;45.332;10.230;2023-04-15T09:41:24;17.40;91.60
45765;DHT22;31474;45.332;10.230;2023-04-15T09:43:49;17.60;92.90
45765;DHT22;31474;45.332;10.230;2023-04-15T09:46:15;17.70;92.80
45765;DHT22;31474;45.332;10.230;2023-04-15T09:48:41;17.80;92.70
45765;DHT22;31474;45.332;10.230;2023-04-15T09:51:06;17.70;92.90
45765;DHT22;31474;45.332;10.230;2023-04-15T09:53:34;17.60;92.20
45765;DHT22;31474;45.332;10.230;2023-04-15T09:56:01;17.70;93.10
45765;DHT22;31474;45.332;10.230;2023-04-15T09:58:28;17.50;92.00
45765;DHT22;31474;45.332;10.230;2023-04-15T10:00:56;17.60;92.70
45765;DHT22;31474;45.332;10.230;2023-04-15T10:03:25;17.70;92.80
45765;DHT22;31474;45.332;10.230;2023-04-15T10:05:53;17.80;92.70
45765;DHT22;31474;45.332;10.230;2023-04-15T10:08:20;17.80;93.00
45765;DHT22;31474;45.332;10.230;2023-04-15T10:10:47;18.00;93.00
45765;DHT22;31474;45.332;10.230;2023-04-15T10:13:20;18.10;93.50
45765;DHT22;31474;45.332;10.230;2023-04-15T10:16:06;18.10;93.40
45765;DHT22;31474;45.332;10.230;2023-04-15T10:18:34;18.30;93.70
45765;DHT22;31474;45.332;10.230;2023-04-15T10:21:03;18.40;93.40
45765;DHT22;31474;45.332;10.230;2023-04-15T10:23:30;18.40;93.60
45765;DHT22;31474;45.332;10.230;2023-04-15T10:25:57;18.50;93.90
45765;DHT22;31474;45.332;10.230;2023-04-15T10:28:24;18.60;93.00
45765;DHT22;31474;45.332;10.230;2023-04-15T10:30:51;18.40;92.90
45765;DHT22;31474;45.332;10.230;2023-04-15T10:33:20;18.30;92.00
45765;DHT22;31474;45.332;10.230;2023-04-15T10:35:48;18.20;92.50
45765;DHT22;31474;45.332;10.230;2023-04-15T10:43:52;18.40;93.30
45765;DHT22;31474;45.332;10.230;2023-04-15T10:46:43;18.30;93.80
45765;DHT22;31474;45.332;10.230;2023-04-15T10:49:13;18.30;92.80
45765;DHT22;31474;45.332;10.230;2023-04-15T10:51:44;18.20;93.70
45765;DHT22;31474;45.332;10.230;2023-04-15T10:54:30;18.30;93.40
45765;DHT22;31474;45.332;10.230;2023-04-15T10:59:36;18.20;93.90
45765;DHT22;31474;45.332;10.230;2023-04-15T11:02:04;18.20;91.10
45765;DHT22;31474;45.332;10.230;2023-04-15T11:04:58;18.00;90.80
45765;DHT22;31474;45.332;10.230;2023-04-15T11:12:38;18.20;92.40
45765;DHT22;31474;45.332;10.230;2023-04-15T11:15:33;18.00;92.30
45765;DHT22;31474;45.332;10.230;2023-04-15T11:18:09;18.00;92.60
45765;DHT22;31474;45.332;10.230;2023-04-15T11:20:36;17.70;92.50
45765;DHT22;31474;45.332;10.230;2023-04-15T11:23:02;17.70;93.30
45765;DHT22;31474;45.332;10.230;2023-04-15T11:25:33;18.00;93.80
45765;DHT22;31474;45.332;10.230;2023-04-15T11:28:00;18.10;93.90
45765;DHT22;31474;45.332;10.230;2023-04-15T11:30:28;18.20;93.40
45765;DHT22;31474;45.332;10.230;2023-04-15T11:32:57;18.20;92.20
45765;DHT22;31474;45.332;10.230;2023-04-15T11:35:23;18.30;91.60
45765;DHT22;31474;45.332;10.230;2023-04-15T11:37:49;18.20;92.50
45765;DHT22;31474;45.332;10.230;2023-04-15T11:40:22;18.40;92.70
45765;DHT22;31474;45.332;10.230;2023-04-15T11:43:10;18.30;91.90
45765;DHT22;31474;45.332;10.230;2023-04-15T11:45:49;18.40;90.90
45765;DHT22;31474;45.332;10.230;2023-04-15T11:48:16;18.40;90.80
45765;DHT22;31474;45.332;10.230;2023-04-15T11:50:42;18.60;91.50
45765;DHT22;31474;45.332;10.230;2023-04-15T11:53:12;18.60;88.60
45765;DHT22;31474;45.332;10.230;2023-04-15T11:58:21;18.50;91.20
45765;DHT22;31474;45.332;10.230;2023-04-15T12:00:58;18.40;91.50
45765;DHT22;31474;45.332;10.230;2023-04-15T12:03:35;18.40;91.70
45765;DHT22;31474;45.332;10.230;2023-04-15T12:06:19;18.50;91.50
45765;DHT22;31474;45.332;10.230;2023-04-15T12:09:11;18.70;90.90
45765;DHT22;31474;45.332;10.230;2023-04-15T12:11:43;18.70;91.20
45765;DHT22;31474;45.332;10.230;2023-04-15T12:16:48;19.10;90.90
45765;DHT22;31474;45.332;10.230;2023-04-15T12:19:21;19.10;90.20
45765;DHT22;31474;45.332;10.230;2023-04-15T12:21:47;19.10;89.30
45765;DHT22;31474;45.332;10.230;2023-04-15T12:24:14;18.90;89.70
45765;DHT22;31474;45.332;10.230;2023-04-15T12:26:51;19.00;90.40
45765;DHT22;31474;45.332;10.230;2023-04-15T12:29:18;18.90;86.80
45765;DHT22;31474;45.332;10.230;2023-04-15T12:32:08;18.90;89.60
45765;DHT22;31474;45.332;10.230;2023-04-15T12:34:36;19.10;89.50
45765;DHT22;31474;45.332;10.230;2023-04-15T12:37:04;19.00;89.10
45765;DHT22;31474;45.332;10.230;2023-04-15T12:39:33;19.10;90.40
45765;DHT22;31474;45.332;10.230;2023-04-15T12:41:59;19.30;89.60
45765;DHT22;31474;45.332;10.230;2023-04-15T12:44:26;19.20;88.80
45765;DHT22;31474;45.332;10.230;2023-04-15T12:46:52;19.20;89.20
45765;DHT22;31474;45.332;10.230;2023-04-15T12:49:19;19.20;89.70
45765;DHT22;31474;45.332;10.230;2023-04-15T12:51:48;19.30;90.30
45765;DHT22;31474;45.332;10.230;2023-04-15T12:54:13;19.40;90.10
45765;DHT22;31474;45.332;10.230;2023-04-15T12:56:39;19.40;88.50
45765;DHT22;31474;45.332;10.230;2023-04-15T12:59:05;19.30;88.60
45765;DHT22;31474;45.332;10.230;2023-04-15T13:01:30;19.10;89.10
45765;DHT22;31474;45.332;10.230;2023-04-15T13:03:56;19.10;89.40
45765;DHT22;31474;45.332;10.230;2023-04-15T13:06:21;19.20;89.00
45765;DHT22;31474;45.332;10.230;2023-04-15T13:08:49;19.30;89.90
45765;DHT22;31474;45.332;10.230;2023-04-15T13:11:15;19.40;87.70
45765;DHT22;31474;45.332;10.230;2023-04-15T13:13:41;19.30;86.10
45765;DHT22;31474;45.332;10.230;2023-04-15T13:16:07;19.20;86.90
45765;DHT22;31474;45.332;10.230;2023-04-15T13:18:34;19.40;87.50
45765;DHT22;31474;45.332;10.230;2023-04-15T13:21:00;19.30;85.80
45765;DHT22;31474;45.332;10.230;2023-04-15T13:23:26;19.30;87.20
45765;DHT22;31474;45.332;10.230;2023-04-15T13:25:52;19.20;86.90
45765;DHT22;31474;45.332;10.230;2023-04-15T13:28:17;19.20;87.30
45765;DHT22;31474;45.332;10.230;2023-04-15T13:30:43;19.20;87.20
45765;DHT22;31474;45.332;10.230;2023-04-15T13:33:10;19.20;84.90
45765;DHT22;31474;45.332;10.230;2023-04-15T13:35:36;19.20;87.10
45765;DHT22;31474;45.332;10.230;2023-04-15T13:38:01;19.30;86.90
45765;DHT22;31474;45.332;10.230;2023-04-15T13:40:27;19.30;87.70
45765;DHT22;31474;45.332;10.230;2023-04-15T13:42:53;19.20;87.80
45765;DHT22;31474;45.332;10.230;2023-04-15T13:45:18;19.20;90.00
45765;DHT22;31474;45.332;10.230;2023-04-15T13:47:44;19.20;89.00
45765;DHT22;31474;45.332;10.230;2023-04-15T13:50:10;19.10;89.10
45765;DHT22;31474;45.332;10.230;2023-04-15T13:52:36;19.10;89.50
45765;DHT22;31474;45.332;10.230;2023-04-15T13:55:05;19.00;89.00
45765;DHT22;31474;45.332;10.230;2023-04-15T13:57:31;19.20;86.80
45765;DHT22;31474;45.332;10.230;2023-04-15T13:59:57;19.10;83.90
45765;DHT22;31474;45.332;10.230;2023-04-15T14:02:22;19.30;87.30
45765;DHT22;31474;45.332;10.230;2023-04-15T14:04:48;19.20;87.10
45765;DHT22;31474;45.332;10.230;2023-04-15T14:07:14;19.20;84.20
45765;DHT22;31474;45.332;10.230;2023-04-15T14:09:40;19.30;84.60
45765;DHT22;31474;45.332;10.230;2023-04-15T14:12:05;19.30;84.70
45765;DHT22;31474;45.332;10.230;2023-04-15T14:14:31;19.10;80.50
45765;DHT22;31474;45.332;10.230;2023-04-15T14:16:57;19.20;84.10
45765;DHT22;31474;45.332;10.230;2023-04-15T14:19:23;19.20;81.40
45765;DHT22;31474;45.332;10.230;2023-04-15T14:21:49;19.20;81.90
45765;DHT22;31474;45.332;10.230;2023-04-15T14:24:14;19.20;83.30
45765;DHT22;31474;45.332;10.230;2023-04-15T14:26:42;19.30;84.10
45765;DHT22;31474;45.332;10.230;2023-04-15T14:29:09;19.30;84.70
45765;DHT22;31474;45.332;10.230;2023-04-15T14:31:34;19.20;85.20
45765;DHT22;31474;45.332;10.230;2023-04-15T14:34:00;19.20;85.70
45765;DHT22;31474;45.332;10.230;2023-04-15T14:36:26;19.20;86.40
45765;DHT22;31474;45.332;10.230;2023-04-15T14:38:52;19.20;84.70
45765;DHT22;31474;45.332;10.230;2023-04-15T14:41:17;19.10;84.30
45765;DHT22;31474;45.332;10.230;2023-04-15T14:43:43;19.10;87.50
45765;DHT22;31474;45.332;10.230;2023-04-15T14:46:09;19.20;87.90
45765;DHT22;31474;45.332;10.230;2023-04-15T14:48:35;19.10;88.50
45765;DHT22;31474;45.332;10.230;2023-04-15T14:51:01;19.10;88.00
45765;DHT22;31474;45.332;10.230;2023-04-15T14:53:27;18.90;87.30
45765;DHT22;31474;45.332;10.230;2023-04-15T14:55:52;19.00;85.80
45765;DHT22;31474;45.332;10.230;2023-04-15T14:58:18;18.90;86.80
45765;DHT22;31474;45.332;10.230;2023-04-15T15:00:44;18.80;86.70
45765;DHT22;31474;45.332;10.230;2023-04-15T15:03:10;18.70;85.50
45765;DHT22;31474;45.332;10.230;2023-04-15T15:05:40;18.70;85.00
45765;DHT22;31474;45.332;10.230;2023-04-15T15:08:07;18.70;87.10
45765;DHT22;31474;45.332;10.230;2023-04-15T15:10:34;18.70;86.70
45765;DHT22;31474;45.332;10.230;2023-04-15T15:13:02;18.70;87.30
45765;DHT22;31474;45.332;10.230;2023-04-15T15:15:28;18.80;87.40
45765;DHT22;31474;45.332;10.230;2023-04-15T15:17:54;18.90;87.80
45765;DHT22;31474;45.332;10.230;2023-04-15T15:20:20;18.90;87.20
45765;DHT22;31474;45.332;10.230;2023-04-15T15:22:45;19.00;85.60
45765;DHT22;31474;45.332;10.230;2023-04-15T15:25:11;19.00;84.00
45765;DHT22;31474;45.332;10.230;2023-04-15T15:27:36;19.00;86.00
45765;DHT22;31474;45.332;10.230;2023-04-15T15:30:02;19.00;86.00
45765;DHT22;31474;45.332;10.230;2023-04-15T15:32:28;19.00;87.00
45765;DHT22;31474;45.332;10.230;2023-04-15T15:34:54;19.10;84.80